sensor_id;sensor_type;location;lat;lon;timestamp;P1;durP1;ratioP1;P2;durP2;ratioP2
30519;SDS011;17300;50.374;8.006;2023-03-03T00:00:36;5.90;;;5.10;;
30519;SDS011;17300;50.374;8.006;2023-03-03T00:03:04;6.40;;;5.13;;
30519;SDS011;17300;50.374;8.006;2023-03-03T00:05:33;6.40;;;4.97;;
30519;SDS011;17300;50.374;8.006;2023-03-03T00:08:01;6.97;;;5.50;;
30519;SDS011;17300;50.374;8.006;2023-03-03T00:10:28;6.40;;;5.00;;
30519;SDS011;17300;50.374;8.006;2023-03-03T00:12:55;7.60;;;5.00;;
30519;SDS011;17300;50.374;8.006;2023-03-03T00:15:24;6.40;;;4.73;;
30519;SDS011;17300;50.374;8.006;2023-03-03T00:17:51;6.47;;;5.03;;
30519;SDS011;17300;50.374;8.006;2023-03-03T00:25:33;6.33;;;4.87;;
30519;SDS011;17300;50.374;8.006;2023-03-03T00:28:00;5.97;;;4.70;;
30519;SDS011;17300;50.374;8.006;2023-03-03T00:30:33;6.97;;;4.83;;
30519;SDS011;17300;50.374;8.006;2023-03-03T00:33:00;7.33;;;4.97;;
30519;SDS011;17300;50.374;8.006;2023-03-03T00:35:28;6.33;;;5.17;;
30519;SDS011;17300;50.374;8.006;2023-03-03T00:37:59;6.97;;;5.03;;
30519;SDS011;17300;50.374;8.006;2023-03-03T00:40:30;6.00;;;4.80;;
30519;SDS011;17300;50.374;8.006;2023-03-03T00:43:00;6.93;;;5.20;;
30519;SDS011;17300;50.374;8.006;2023-03-03T00:45:39;7.13;;;5.03;;
30519;SDS011;17300;50.374;8.006;2023-03-03T00:48:18;6.03;;;4.67;;
30519;SDS011;17300;50.374;8.006;2023-03-03T00:50:51;5.80;;;4.40;;
30519;SDS011;17300;50.374;8.006;2023-03-03T00:53:19;5.13;;;4.40;;
30519;SDS011;17300;50.374;8.006;2023-03-03T00:55:47;5.27;;;4.57;;
30519;SDS011;17300;50.374;8.006;2023-03-03T00:58:15;6.27;;;4.60;;
30519;SDS011;17300;50.374;8.006;2023-03-03T01:00:47;6.97;;;4.23;;
30519;SDS011;17300;50.374;8.006;2023-03-03T01:03:15;5.97;;;4.47;;
30519;SDS011;17300;50.374;8.006;2023-03-03T01:05:43;9.80;;;4.60;;
30519;SDS011;17300;50.374;8.006;2023-03-03T01:08:10;5.97;;;4.67;;
30519;SDS011;17300;50.374;8.006;2023-03-03T01:10:38;6.03;;;4.73;;
30519;SDS011;17300;50.374;8.006;2023-03-03T01:13:07;5.20;;;4.10;;
30519;SDS011;17300;50.374;8.006;2023-03-03T01:15:36;6.00;;;4.83;;
30519;SDS011;17300;50.374;8.006;2023-03-03T01:18:05;7.50;;;4.80;;
30519;SDS011;17300;50.374;8.006;2023-03-03T01:20:32;6.30;;;4.43;;
30519;SDS011;17300;50.374;8.006;2023-03-03T01:22:59;6.73;;;4.70;;
30519;SDS011;17300;50.374;8.006;2023-03-03T01:25:26;5.50;;;4.20;;
30519;SDS011;17300;50.374;8.006;2023-03-03T01:27:53;5.13;;;4.47;;
30519;SDS011;17300;50.374;8.006;2023-03-03T01:30:20;5.90;;;4.27;;
30519;SDS011;17300;50.374;8.006;2023-03-03T01:32:47;7.07;;;4.47;;
30519;SDS011;17300;50.374;8.006;2023-03-03T01:35:15;5.40;;;4.50;;
30519;SDS011;17300;50.374;8.006;2023-03-03T01:37:42;4.23;;;3.63;;
30519;SDS011;17300;50.374;8.006;2023-03-03T01:40:12;6.90;;;4.67;;
30519;SDS011;17300;50.374;8.006;2023-03-03T01:42:40;4.60;;;3.90;;
30519;SDS011;17300;50.374;8.006;2023-03-03T01:45:14;4.67;;;4.00;;
30519;SDS011;17300;50.374;8.006;2023-03-03T01:47:43;4.93;;;3.60;;
30519;SDS011;17300;50.374;8.006;2023-03-03T01:50:14;5.20;;;4.30;;
30519;SDS011;17300;50.374;8.006;2023-03-03T01:52:50;5.73;;;4.20;;
30519;SDS011;17300;50.374;8.006;2023-03-03T01:55:17;5.40;;;4.30;;
30519;SDS011;17300;50.374;8.006;2023-03-03T01:57:47;4.83;;;3.97;;
30519;SDS011;17300;50.374;8.006;2023-03-03T02:00:20;5.43;;;3.97;;
30519;SDS011;17300;50.374;8.006;2023-03-03T02:02:46;6.07;;;4.30;;
30519;SDS011;17300;50.374;8.006;2023-03-03T02:05:14;5.70;;;4.00;;
30519;SDS011;17300;50.374;8.006;2023-03-03T02:07:43;5.90;;;4.30;;
30519;SDS011;17300;50.374;8.006;2023-03-03T02:10:12;5.30;;;4.33;;
30519;SDS011;17300;50.374;8.006;2023-03-03T02:12:42;6.13;;;4.17;;
30519;SDS011;17300;50.374;8.006;2023-03-03T02:15:14;6.77;;;4.80;;
30519;SDS011;17300;50.374;8.006;2023-03-03T02:17:42;6.77;;;5.23;;
30519;SDS011;17300;50.374;8.006;2023-03-03T02:20:11;6.40;;;5.20;;
30519;SDS011;17300;50.374;8.006;2023-03-03T02:22:43;5.90;;;4.73;;
30519;SDS011;17300;50.374;8.006;2023-03-03T02:25:17;5.60;;;4.70;;
30519;SDS011;17300;50.374;8.006;2023-03-03T02:27:52;7.33;;;4.73;;
30519;SDS011;17300;50.374;8.006;2023-03-03T02:30:23;6.27;;;4.50;;
30519;SDS011;17300;50.374;8.006;2023-03-03T02:32:50;5.97;;;4.40;;
30519;SDS011;17300;50.374;8.006;2023-03-03T02:35:27;6.10;;;3.97;;
30519;SDS011;17300;50.374;8.006;2023-03-03T02:37:57;5.50;;;3.93;;
30519;SDS011;17300;50.374;8.006;2023-03-03T02:40:30;5.40;;;4.10;;
30519;SDS011;17300;50.374;8.006;2023-03-03T02:43:03;6.20;;;4.30;;
30519;SDS011;17300;50.374;8.006;2023-03-03T02:45:31;5.63;;;4.10;;
30519;SDS011;17300;50.374;8.006;2023-03-03T02:48:07;4.50;;;3.70;;
30519;SDS011;17300;50.374;8.006;2023-03-03T02:50:34;4.10;;;3.70;;
30519;SDS011;17300;50.374;8.006;2023-03-03T02:53:00;5.60;;;4.13;;
30519;SDS011;17300;50.374;8.006;2023-03-03T02:55:27;4.90;;;3.90;;
30519;SDS011;17300;50.374;8.006;2023-03-03T02:57:54;5.27;;;3.70;;
30519;SDS011;17300;50.374;8.006;2023-03-03T03:00:22;4.73;;;3.90;;
30519;SDS011;17300;50.374;8.006;2023-03-03T03:02:48;5.40;;;3.87;;
30519;SDS011;17300;50.374;8.006;2023-03-03T03:05:15;5.10;;;3.80;;
30519;SDS011;17300;50.374;8.006;2023-03-03T03:07:42;4.47;;;3.97;;
30519;SDS011;17300;50.374;8.006;2023-03-03T03:10:11;4.70;;;3.70;;
30519;SDS011;17300;50.374;8.006;2023-03-03T03:12:38;6.30;;;3.93;;
30519;SDS011;17300;50.374;8.006;2023-03-03T03:15:05;5.90;;;3.70;;
30519;SDS011;17300;50.374;8.006;2023-03-03T03:17:35;4.77;;;4.20;;
30519;SDS011;17300;50.374;8.006;2023-03-03T03:20:02;4.77;;;3.53;;
30519;SDS011;17300;50.374;8.006;2023-03-03T03:22:30;4.83;;;3.90;;
30519;SDS011;17300;50.374;8.006;2023-03-03T03:24:56;5.50;;;4.23;;
30519;SDS011;17300;50.374;8.006;2023-03-03T03:27:23;5.23;;;3.97;;
30519;SDS011;17300;50.374;8.006;2023-03-03T03:29:50;4.83;;;3.90;;
30519;SDS011;17300;50.374;8.006;2023-03-03T03:32:16;4.53;;;3.80;;
30519;SDS011;17300;50.374;8.006;2023-03-03T03:34:44;4.40;;;3.70;;
30519;SDS011;17300;50.374;8.006;2023-03-03T03:37:11;4.90;;;3.93;;
30519;SDS011;17300;50.374;8.006;2023-03-03T03:39:38;4.30;;;3.90;;
30519;SDS011;17300;50.374;8.006;2023-03-03T03:42:05;5.27;;;3.60;;
30519;SDS011;17300;50.374;8.006;2023-03-03T03:44:31;5.80;;;3.83;;
30519;SDS011;17300;50.374;8.006;2023-03-03T03:46:58;4.67;;;3.60;;
30519;SDS011;17300;50.374;8.006;2023-03-03T03:49:25;5.63;;;3.97;;
30519;SDS011;17300;50.374;8.006;2023-03-03T03:51:53;4.67;;;3.53;;
30519;SDS011;17300;50.374;8.006;2023-03-03T03:54:21;5.10;;;3.77;;
30519;SDS011;17300;50.374;8.006;2023-03-03T03:56:49;5.37;;;3.70;;
30519;SDS011;17300;50.374;8.006;2023-03-03T03:59:17;4.17;;;3.60;;
30519;SDS011;17300;50.374;8.006;2023-03-03T04:01:43;4.70;;;3.63;;
30519;SDS011;17300;50.374;8.006;2023-03-03T04:04:10;5.37;;;3.83;;
30519;SDS011;17300;50.374;8.006;2023-03-03T04:06:37;4.07;;;3.63;;
30519;SDS011;17300;50.374;8.006;2023-03-03T04:09:05;4.70;;;3.80;;
30519;SDS011;17300;50.374;8.006;2023-03-03T04:11:31;6.23;;;3.93;;
30519;SDS011;17300;50.374;8.006;2023-03-03T04:13:58;5.13;;;3.90;;
30519;SDS011;17300;50.374;8.006;2023-03-03T04:16:24;5.30;;;3.87;;
30519;SDS011;17300;50.374;8.006;2023-03-03T04:18:51;5.00;;;3.97;;
30519;SDS011;17300;50.374;8.006;2023-03-03T04:21:27;5.13;;;3.63;;
30519;SDS011;17300;50.374;8.006;2023-03-03T04:23:54;5.70;;;3.70;;
30519;SDS011;17300;50.374;8.006;2023-03-03T04:26:22;4.63;;;3.80;;
30519;SDS011;17300;50.374;8.006;2023-03-03T04:28:49;4.63;;;3.87;;
30519;SDS011;17300;50.374;8.006;2023-03-03T04:31:15;4.90;;;4.27;;
30519;SDS011;17300;50.374;8.006;2023-03-03T04:33:43;4.33;;;3.90;;
30519;SDS011;17300;50.374;8.006;2023-03-03T04:36:10;5.97;;;4.10;;
30519;SDS011;17300;50.374;8.006;2023-03-03T04:38:37;4.77;;;4.03;;
30519;SDS011;17300;50.374;8.006;2023-03-03T04:41:04;6.87;;;4.50;;
30519;SDS011;17300;50.374;8.006;2023-03-03T04:43:34;5.00;;;4.07;;
30519;SDS011;17300;50.374;8.006;2023-03-03T04:46:01;4.67;;;4.03;;
30519;SDS011;17300;50.374;8.006;2023-03-03T04:48:27;4.97;;;4.37;;
30519;SDS011;17300;50.374;8.006;2023-03-03T04:50:54;4.90;;;3.90;;
30519;SDS011;17300;50.374;8.006;2023-03-03T04:53:21;4.70;;;4.17;;
30519;SDS011;17300;50.374;8.006;2023-03-03T04:55:48;5.13;;;4.13;;
30519;SDS011;17300;50.374;8.006;2023-03-03T04:58:15;6.00;;;4.93;;
30519;SDS011;17300;50.374;8.006;2023-03-03T05:01:01;5.50;;;4.37;;
30519;SDS011;17300;50.374;8.006;2023-03-03T05:03:28;5.47;;;4.63;;
30519;SDS011;17300;50.374;8.006;2023-03-03T05:05:55;5.73;;;4.73;;
30519;SDS011;17300;50.374;8.006;2023-03-03T05:08:24;5.43;;;4.50;;
30519;SDS011;17300;50.374;8.006;2023-03-03T05:10:51;5.87;;;4.70;;
30519;SDS011;17300;50.374;8.006;2023-03-03T05:13:18;7.07;;;5.10;;
30519;SDS011;17300;50.374;8.006;2023-03-03T05:15:48;6.30;;;5.00;;
30519;SDS011;17300;50.374;8.006;2023-03-03T05:18:17;6.43;;;5.07;;
30519;SDS011;17300;50.374;8.006;2023-03-03T05:20:44;7.33;;;4.87;;
30519;SDS011;17300;50.374;8.006;2023-03-03T05:23:11;6.17;;;4.90;;
30519;SDS011;17300;50.374;8.006;2023-03-03T05:25:38;5.50;;;4.53;;
30519;SDS011;17300;50.374;8.006;2023-03-03T05:28:06;6.90;;;4.73;;
30519;SDS011;17300;50.374;8.006;2023-03-03T05:30:32;5.37;;;4.67;;
30519;SDS011;17300;50.374;8.006;2023-03-03T05:32:59;6.93;;;5.20;;
30519;SDS011;17300;50.374;8.006;2023-03-03T05:35:30;6.20;;;5.30;;
30519;SDS011;17300;50.374;8.006;2023-03-03T05:37:57;6.73;;;5.10;;
30519;SDS011;17300;50.374;8.006;2023-03-03T05:40:24;8.23;;;5.30;;
30519;SDS011;17300;50.374;8.006;2023-03-03T05:42:51;5.43;;;4.37;;
30519;SDS011;17300;50.374;8.006;2023-03-03T05:45:18;5.67;;;4.30;;
30519;SDS011;17300;50.374;8.006;2023-03-03T05:47:45;7.13;;;4.53;;
30519;SDS011;17300;50.374;8.006;2023-03-03T05:50:12;5.83;;;4.47;;
30519;SDS011;17300;50.374;8.006;2023-03-03T05:52:40;5.70;;;4.70;;
30519;SDS011;17300;50.374;8.006;2023-03-03T05:55:08;7.03;;;4.73;;
30519;SDS011;17300;50.374;8.006;2023-03-03T05:57:46;8.50;;;6.23;;
30519;SDS011;17300;50.374;8.006;2023-03-03T06:00:16;8.53;;;6.27;;
30519;SDS011;17300;50.374;8.006;2023-03-03T06:02:43;8.60;;;6.60;;
30519;SDS011;17300;50.374;8.006;2023-03-03T06:05:09;8.00;;;6.40;;
30519;SDS011;17300;50.374;8.006;2023-03-03T06:07:36;9.40;;;6.30;;
30519;SDS011;17300;50.374;8.006;2023-03-03T06:10:05;8.40;;;6.47;;
30519;SDS011;17300;50.374;8.006;2023-03-03T06:12:33;8.10;;;6.87;;
30519;SDS011;17300;50.374;8.006;2023-03-03T06:15:01;9.53;;;6.93;;
30519;SDS011;17300;50.374;8.006;2023-03-03T06:17:30;7.57;;;5.97;;
30519;SDS011;17300;50.374;8.006;2023-03-03T06:19:59;7.63;;;5.87;;
30519;SDS011;17300;50.374;8.006;2023-03-03T06:22:26;8.97;;;6.80;;
30519;SDS011;17300;50.374;8.006;2023-03-03T06:24:52;9.07;;;6.57;;
30519;SDS011;17300;50.374;8.006;2023-03-03T06:27:20;8.93;;;6.27;;
30519;SDS011;17300;50.374;8.006;2023-03-03T06:29:50;8.93;;;7.20;;
30519;SDS011;17300;50.374;8.006;2023-03-03T06:32:22;10.73;;;7.03;;
30519;SDS011;17300;50.374;8.006;2023-03-03T06:34:48;11.37;;;7.83;;
30519;SDS011;17300;50.374;8.006;2023-03-03T06:37:18;10.50;;;7.43;;
30519;SDS011;17300;50.374;8.006;2023-03-03T06:39:47;9.67;;;6.83;;
30519;SDS011;17300;50.374;8.006;2023-03-03T06:42:15;8.97;;;6.43;;
30519;SDS011;17300;50.374;8.006;2023-03-03T06:44:44;10.77;;;7.43;;
30519;SDS011;17300;50.374;8.006;2023-03-03T06:47:10;11.87;;;7.00;;
30519;SDS011;17300;50.374;8.006;2023-03-03T06:49:37;10.87;;;6.73;;
30519;SDS011;17300;50.374;8.006;2023-03-03T06:52:18;7.93;;;6.33;;
30519;SDS011;17300;50.374;8.006;2023-03-03T06:54:48;8.87;;;6.60;;
30519;SDS011;17300;50.374;8.006;2023-03-03T06:57:16;7.90;;;6.17;;
30519;SDS011;17300;50.374;8.006;2023-03-03T06:59:51;7.80;;;6.63;;
30519;SDS011;17300;50.374;8.006;2023-03-03T07:02:19;9.07;;;6.83;;
30519;SDS011;17300;50.374;8.006;2023-03-03T07:04:47;9.63;;;6.93;;
30519;SDS011;17300;50.374;8.006;2023-03-03T07:07:15;10.80;;;7.20;;
30519;SDS011;17300;50.374;8.006;2023-03-03T07:09:44;9.87;;;7.67;;
30519;SDS011;17300;50.374;8.006;2023-03-03T07:12:15;9.80;;;7.23;;
30519;SDS011;17300;50.374;8.006;2023-03-03T07:14:44;9.83;;;7.10;;
30519;SDS011;17300;50.374;8.006;2023-03-03T07:17:16;10.87;;;7.83;;
30519;SDS011;17300;50.374;8.006;2023-03-03T07:19:44;10.00;;;8.00;;
30519;SDS011;17300;50.374;8.006;2023-03-03T07:22:13;8.70;;;7.50;;
30519;SDS011;17300;50.374;8.006;2023-03-03T07:24:42;9.63;;;7.93;;
30519;SDS011;17300;50.374;8.006;2023-03-03T07:27:11;9.10;;;7.57;;
30519;SDS011;17300;50.374;8.006;2023-03-03T07:29:48;9.23;;;7.20;;
30519;SDS011;17300;50.374;8.006;2023-03-03T07:35:06;9.27;;;7.43;;
30519;SDS011;17300;50.374;8.006;2023-03-03T07:37:47;8.73;;;6.87;;
30519;SDS011;17300;50.374;8.006;2023-03-03T07:40:24;9.00;;;7.53;;
30519;SDS011;17300;50.374;8.006;2023-03-03T07:42:56;9.83;;;8.40;;
30519;SDS011;17300;50.374;8.006;2023-03-03T07:45:24;9.50;;;7.97;;
30519;SDS011;17300;50.374;8.006;2023-03-03T07:47:58;9.73;;;7.67;;
30519;SDS011;17300;50.374;8.006;2023-03-03T07:50:33;10.50;;;8.33;;
30519;SDS011;17300;50.374;8.006;2023-03-03T07:53:00;9.93;;;8.03;;
30519;SDS011;17300;50.374;8.006;2023-03-03T07:55:29;9.33;;;7.70;;
30519;SDS011;17300;50.374;8.006;2023-03-03T07:58:11;10.77;;;8.07;;
30519;SDS011;17300;50.374;8.006;2023-03-03T08:03:53;10.97;;;8.20;;
30519;SDS011;17300;50.374;8.006;2023-03-03T08:06:41;9.53;;;8.30;;
30519;SDS011;17300;50.374;8.006;2023-03-03T08:09:24;10.00;;;8.23;;
30519;SDS011;17300;50.374;8.006;2023-03-03T08:12:01;11.57;;;9.17;;
30519;SDS011;17300;50.374;8.006;2023-03-03T08:14:43;11.17;;;9.47;;
30519;SDS011;17300;50.374;8.006;2023-03-03T08:17:12;12.40;;;9.70;;
30519;SDS011;17300;50.374;8.006;2023-03-03T08:19:43;13.43;;;11.07;;
30519;SDS011;17300;50.374;8.006;2023-03-03T08:22:11;13.70;;;11.23;;
30519;SDS011;17300;50.374;8.006;2023-03-03T08:24:44;14.20;;;11.07;;
30519;SDS011;17300;50.374;8.006;2023-03-03T08:27:11;12.80;;;10.63;;
30519;SDS011;17300;50.374;8.006;2023-03-03T08:29:37;13.23;;;11.07;;
30519;SDS011;17300;50.374;8.006;2023-03-03T08:32:05;14.13;;;10.77;;
30519;SDS011;17300;50.374;8.006;2023-03-03T08:34:32;11.93;;;10.43;;
30519;SDS011;17300;50.374;8.006;2023-03-03T08:37:00;13.20;;;11.37;;
30519;SDS011;17300;50.374;8.006;2023-03-03T08:39:28;11.40;;;10.20;;
30519;SDS011;17300;50.374;8.006;2023-03-03T08:41:55;11.80;;;10.50;;
30519;SDS011;17300;50.374;8.006;2023-03-03T08:44:21;11.73;;;10.53;;
30519;SDS011;17300;50.374;8.006;2023-03-03T08:46:48;12.47;;;10.33;;
30519;SDS011;17300;50.374;8.006;2023-03-03T08:49:15;12.23;;;10.37;;
30519;SDS011;17300;50.374;8.006;2023-03-03T08:51:44;11.80;;;10.57;;
30519;SDS011;17300;50.374;8.006;2023-03-03T08:54:13;11.63;;;9.93;;
30519;SDS011;17300;50.374;8.006;2023-03-03T08:56:40;11.00;;;9.63;;
30519;SDS011;17300;50.374;8.006;2023-03-03T08:59:06;11.13;;;9.73;;
30519;SDS011;17300;50.374;8.006;2023-03-03T09:01:33;12.03;;;10.03;;
30519;SDS011;17300;50.374;8.006;2023-03-03T09:04:00;12.00;;;10.47;;
30519;SDS011;17300;50.374;8.006;2023-03-03T09:06:27;11.90;;;9.73;;
30519;SDS011;17300;50.374;8.006;2023-03-03T09:08:54;11.27;;;10.07;;
30519;SDS011;17300;50.374;8.006;2023-03-03T09:11:23;12.03;;;9.90;;
30519;SDS011;17300;50.374;8.006;2023-03-03T09:13:53;10.47;;;9.37;;
30519;SDS011;17300;50.374;8.006;2023-03-03T09:16:36;9.37;;;8.37;;
30519;SDS011;17300;50.374;8.006;2023-03-03T09:19:14;10.53;;;9.33;;
30519;SDS011;17300;50.374;8.006;2023-03-03T09:21:47;10.70;;;9.70;;
30519;SDS011;17300;50.374;8.006;2023-03-03T09:24:17;11.03;;;9.93;;
30519;SDS011;17300;50.374;8.006;2023-03-03T09:26:51;10.13;;;9.13;;
30519;SDS011;17300;50.374;8.006;2023-03-03T09:29:27;10.45;;;9.43;;
30519;SDS011;17300;50.374;8.006;2023-03-03T09:31:56;11.20;;;10.10;;
30519;SDS011;17300;50.374;8.006;2023-03-03T09:34:26;10.65;;;9.65;;
30519;SDS011;17300;50.374;8.006;2023-03-03T09:37:11;10.38;;;9.48;;
30519;SDS011;17300;50.374;8.006;2023-03-03T09:39:46;9.90;;;9.02;;
30519;SDS011;17300;50.374;8.006;2023-03-03T09:45:19;9.63;;;8.82;;
30519;SDS011;17300;50.374;8.006;2023-03-03T09:48:18;9.57;;;8.77;;
30519;SDS011;17300;50.374;8.006;2023-03-03T09:50:58;9.52;;;8.68;;
30519;SDS011;17300;50.374;8.006;2023-03-03T09:53:39;9.95;;;9.15;;
30519;SDS011;17300;50.374;8.006;2023-03-03T09:56:12;9.68;;;8.77;;
30519;SDS011;17300;50.374;8.006;2023-03-03T09:58:58;9.40;;;8.60;;
30519;SDS011;17300;50.374;8.006;2023-03-03T10:01:38;8.98;;;8.20;;
30519;SDS011;17300;50.374;8.006;2023-03-03T10:04:17;9.07;;;8.38;;
30519;SDS011;17300;50.374;8.006;2023-03-03T10:06:52;8.35;;;7.65;;
30519;SDS011;17300;50.374;8.006;2023-03-03T10:09:36;8.70;;;8.00;;
30519;SDS011;17300;50.374;8.006;2023-03-03T10:12:19;8.40;;;7.70;;
30519;SDS011;17300;50.374;8.006;2023-03-03T10:15:06;8.32;;;7.63;;
30519;SDS011;17300;50.374;8.006;2023-03-03T10:17:44;8.15;;;7.55;;
30519;SDS011;17300;50.374;8.006;2023-03-03T10:20:22;8.20;;;7.50;;
30519;SDS011;17300;50.374;8.006;2023-03-03T10:22:55;8.02;;;7.32;;
30519;SDS011;17300;50.374;8.006;2023-03-03T10:25:30;8.02;;;7.35;;
30519;SDS011;17300;50.374;8.006;2023-03-03T10:31:18;7.95;;;7.25;;
30519;SDS011;17300;50.374;8.006;2023-03-03T10:33:53;8.10;;;7.45;;
30519;SDS011;17300;50.374;8.006;2023-03-03T10:36:39;7.63;;;7.03;;
30519;SDS011;17300;50.374;8.006;2023-03-03T10:39:19;8.15;;;7.45;;
30519;SDS011;17300;50.374;8.006;2023-03-03T10:42:15;7.20;;;6.60;;
30519;SDS011;17300;50.374;8.006;2023-03-03T10:44:57;7.28;;;6.68;;
30519;SDS011;17300;50.374;8.006;2023-03-03T10:47:47;7.97;;;7.38;;
30519;SDS011;17300;50.374;8.006;2023-03-03T10:50:29;7.03;;;6.47;;
30519;SDS011;17300;50.374;8.006;2023-03-03T10:53:06;7.30;;;6.70;;
30519;SDS011;17300;50.374;8.006;2023-03-03T10:55:44;6.45;;;5.95;;
30519;SDS011;17300;50.374;8.006;2023-03-03T10:58:21;7.15;;;6.55;;
30519;SDS011;17300;50.374;8.006;2023-03-03T11:01:09;6.28;;;5.80;;
30519;SDS011;17300;50.374;8.006;2023-03-03T11:04:01;6.70;;;6.20;;
30519;SDS011;17300;50.374;8.006;2023-03-03T11:06:39;7.03;;;6.43;;
30519;SDS011;17300;50.374;8.006;2023-03-03T11:09:27;7.18;;;6.53;;
30519;SDS011;17300;50.374;8.006;2023-03-03T11:12:05;6.97;;;6.38;;
30519;SDS011;17300;50.374;8.006;2023-03-03T11:14:42;6.95;;;6.45;;
30519;SDS011;17300;50.374;8.006;2023-03-03T11:17:14;6.60;;;6.10;;
30519;SDS011;17300;50.374;8.006;2023-03-03T11:19:52;7.57;;;6.97;;
30519;SDS011;17300;50.374;8.006;2023-03-03T11:22:31;7.03;;;6.45;;
30519;SDS011;17300;50.374;8.006;2023-03-03T11:25:09;6.80;;;6.30;;
30519;SDS011;17300;50.374;8.006;2023-03-03T11:30:42;6.75;;;6.22;;
30519;SDS011;17300;50.374;8.006;2023-03-03T11:33:21;6.57;;;6.00;;
30519;SDS011;17300;50.374;8.006;2023-03-03T11:35:55;7.65;;;6.95;;
30519;SDS011;17300;50.374;8.006;2023-03-03T11:38:45;7.00;;;6.30;;
30519;SDS011;17300;50.374;8.006;2023-03-03T11:41:22;6.60;;;6.10;;
30519;SDS011;17300;50.374;8.006;2023-03-03T11:43:56;6.78;;;6.18;;
30519;SDS011;17300;50.374;8.006;2023-03-03T11:46:30;6.97;;;6.38;;
30519;SDS011;17300;50.374;8.006;2023-03-03T11:49:03;7.18;;;6.55;;
30519;SDS011;17300;50.374;8.006;2023-03-03T11:51:37;7.45;;;6.85;;
30519;SDS011;17300;50.374;8.006;2023-03-03T11:54:14;6.80;;;6.25;;
30519;SDS011;17300;50.374;8.006;2023-03-03T11:56:46;6.40;;;5.90;;
30519;SDS011;17300;50.374;8.006;2023-03-03T11:59:19;7.07;;;6.47;;
30519;SDS011;17300;50.374;8.006;2023-03-03T12:01:59;7.07;;;6.47;;
30519;SDS011;17300;50.374;8.006;2023-03-03T12:04:38;7.27;;;6.67;;
30519;SDS011;17300;50.374;8.006;2023-03-03T12:07:14;7.50;;;6.87;;
30519;SDS011;17300;50.374;8.006;2023-03-03T12:09:54;7.40;;;6.80;;
30519;SDS011;17300;50.374;8.006;2023-03-03T12:12:35;7.00;;;6.30;;
30519;SDS011;17300;50.374;8.006;2023-03-03T12:15:13;6.53;;;5.97;;
30519;SDS011;17300;50.374;8.006;2023-03-03T12:18:02;6.77;;;6.17;;
30519;SDS011;17300;50.374;8.006;2023-03-03T12:20:48;6.70;;;6.10;;
30519;SDS011;17300;50.374;8.006;2023-03-03T12:23:27;6.50;;;5.97;;
30519;SDS011;17300;50.374;8.006;2023-03-03T12:26:08;7.17;;;6.57;;
30519;SDS011;17300;50.374;8.006;2023-03-03T12:28:41;7.37;;;6.67;;
30519;SDS011;17300;50.374;8.006;2023-03-03T12:34:09;7.23;;;6.63;;
30519;SDS011;17300;50.374;8.006;2023-03-03T12:39:43;7.37;;;6.67;;
30519;SDS011;17300;50.374;8.006;2023-03-03T12:42:17;7.60;;;6.90;;
30519;SDS011;17300;50.374;8.006;2023-03-03T12:44:52;7.40;;;6.67;;
30519;SDS011;17300;50.374;8.006;2023-03-03T12:47:32;7.23;;;6.50;;
30519;SDS011;17300;50.374;8.006;2023-03-03T12:50:12;8.17;;;7.47;;
30519;SDS011;17300;50.374;8.006;2023-03-03T12:52:51;8.40;;;7.60;;
30519;SDS011;17300;50.374;8.006;2023-03-03T12:55:31;8.37;;;7.60;;
30519;SDS011;17300;50.374;8.006;2023-03-03T12:58:09;8.93;;;8.03;;
30519;SDS011;17300;50.374;8.006;2023-03-03T13:00:47;8.67;;;7.87;;
30519;SDS011;17300;50.374;8.006;2023-03-03T13:03:25;9.07;;;8.17;;
30519;SDS011;17300;50.374;8.006;2023-03-03T13:06:03;8.87;;;7.97;;
30519;SDS011;17300;50.374;8.006;2023-03-03T13:08:41;10.23;;;9.23;;
30519;SDS011;17300;50.374;8.006;2023-03-03T13:11:21;9.47;;;8.57;;
30519;SDS011;17300;50.374;8.006;2023-03-03T13:14:01;10.60;;;9.40;;
30519;SDS011;17300;50.374;8.006;2023-03-03T13:16:37;10.27;;;9.17;;
30519;SDS011;17300;50.374;8.006;2023-03-03T13:19:10;9.63;;;8.70;;
30519;SDS011;17300;50.374;8.006;2023-03-03T13:21:41;10.00;;;9.00;;
30519;SDS011;17300;50.374;8.006;2023-03-03T13:24:15;9.60;;;8.70;;
30519;SDS011;17300;50.374;8.006;2023-03-03T13:26:48;9.90;;;8.33;;
30519;SDS011;17300;50.374;8.006;2023-03-03T13:29:22;9.70;;;8.80;;
30519;SDS011;17300;50.374;8.006;2023-03-03T13:31:53;10.80;;;9.70;;
30519;SDS011;17300;50.374;8.006;2023-03-03T13:34:27;10.67;;;9.60;;
30519;SDS011;17300;50.374;8.006;2023-03-03T13:37:03;10.57;;;9.57;;
30519;SDS011;17300;50.374;8.006;2023-03-03T13:39:37;11.03;;;9.93;;
30519;SDS011;17300;50.374;8.006;2023-03-03T13:42:11;11.67;;;10.53;;
30519;SDS011;17300;50.374;8.006;2023-03-03T13:44:45;12.03;;;10.77;;
30519;SDS011;17300;50.374;8.006;2023-03-03T13:47:15;11.07;;;9.97;;
30519;SDS011;17300;50.374;8.006;2023-03-03T13:49:54;11.77;;;10.57;;
30519;SDS011;17300;50.374;8.006;2023-03-03T13:52:30;11.83;;;10.63;;
30519;SDS011;17300;50.374;8.006;2023-03-03T13:57:56;11.00;;;9.93;;
30519;SDS011;17300;50.374;8.006;2023-03-03T14:00:28;11.80;;;10.67;;
30519;SDS011;17300;50.374;8.006;2023-03-03T14:06:16;11.43;;;10.27;;
30519;SDS011;17300;50.374;8.006;2023-03-03T14:08:50;12.33;;;10.37;;
30519;SDS011;17300;50.374;8.006;2023-03-03T14:11:24;11.60;;;10.40;;
30519;SDS011;17300;50.374;8.006;2023-03-03T14:14:01;11.37;;;10.27;;
30519;SDS011;17300;50.374;8.006;2023-03-03T14:16:38;10.97;;;9.87;;
30519;SDS011;17300;50.374;8.006;2023-03-03T14:19:16;11.23;;;10.13;;
30519;SDS011;17300;50.374;8.006;2023-03-03T14:21:48;11.70;;;10.50;;
30519;SDS011;17300;50.374;8.006;2023-03-03T14:24:22;11.77;;;10.47;;
30519;SDS011;17300;50.374;8.006;2023-03-03T14:26:51;12.10;;;10.83;;
30519;SDS011;17300;50.374;8.006;2023-03-03T14:29:21;13.47;;;11.07;;
30519;SDS011;17300;50.374;8.006;2023-03-03T14:31:56;10.97;;;9.87;;
30519;SDS011;17300;50.374;8.006;2023-03-03T14:34:25;11.23;;;10.20;;
30519;SDS011;17300;50.374;8.006;2023-03-03T14:37:09;11.57;;;10.33;;
30519;SDS011;17300;50.374;8.006;2023-03-03T14:39:48;12.87;;;9.90;;
30519;SDS011;17300;50.374;8.006;2023-03-03T14:42:31;12.00;;;9.90;;
30519;SDS011;17300;50.374;8.006;2023-03-03T14:45:04;10.87;;;9.77;;
30519;SDS011;17300;50.374;8.006;2023-03-03T14:47:45;10.40;;;9.40;;
30519;SDS011;17300;50.374;8.006;2023-03-03T14:50:27;11.10;;;10.00;;
30519;SDS011;17300;50.374;8.006;2023-03-03T14:53:03;9.93;;;8.93;;
30519;SDS011;17300;50.374;8.006;2023-03-03T14:55:35;10.83;;;9.73;;
30519;SDS011;17300;50.374;8.006;2023-03-03T14:58:04;10.23;;;9.23;;
30519;SDS011;17300;50.374;8.006;2023-03-03T15:00:49;10.30;;;9.00;;
30519;SDS011;17300;50.374;8.006;2023-03-03T15:03:17;9.70;;;8.77;;
30519;SDS011;17300;50.374;8.006;2023-03-03T15:05:47;11.33;;;9.57;;
30519;SDS011;17300;50.374;8.006;2023-03-03T15:08:15;12.47;;;9.80;;
30519;SDS011;17300;50.374;8.006;2023-03-03T15:10:53;10.30;;;9.20;;
30519;SDS011;17300;50.374;8.006;2023-03-03T15:13:33;10.03;;;8.97;;
30519;SDS011;17300;50.374;8.006;2023-03-03T15:16:03;9.67;;;8.53;;
30519;SDS011;17300;50.374;8.006;2023-03-03T15:18:47;9.30;;;8.30;;
30519;SDS011;17300;50.374;8.006;2023-03-03T15:21:20;10.40;;;9.07;;
30519;SDS011;17300;50.374;8.006;2023-03-03T15:23:52;11.30;;;9.40;;
30519;SDS011;17300;50.374;8.006;2023-03-03T15:26:26;9.47;;;8.40;;
30519;SDS011;17300;50.374;8.006;2023-03-03T15:29:05;10.20;;;8.50;;
30519;SDS011;17300;50.374;8.006;2023-03-03T15:31:43;9.87;;;8.87;;
30519;SDS011;17300;50.374;8.006;2023-03-03T15:34:20;8.87;;;7.97;;
30519;SDS011;17300;50.374;8.006;2023-03-03T15:36:54;10.27;;;8.83;;
30519;SDS011;17300;50.374;8.006;2023-03-03T15:39:30;9.57;;;8.23;;
30519;SDS011;17300;50.374;8.006;2023-03-03T15:42:09;8.73;;;7.80;;
30519;SDS011;17300;50.374;8.006;2023-03-03T15:44:45;9.27;;;7.60;;